sensor_id;sensor_type;location;lat;lon;timestamp;P1;durP1;ratioP1;P2;durP2;ratioP2
2868;SDS011;1442;47.448;8.582;2022-12-18T00:01:45;56.38;;;30.13;;
2868;SDS011;1442;47.448;8.582;2022-12-18T00:04:15;58.28;;;28.65;;
2868;SDS011;1442;47.448;8.582;2022-12-18T00:06:43;59.60;;;29.85;;
2868;SDS011;1442;47.448;8.582;2022-12-18T00:09:10;55.63;;;29.08;;
2868;SDS011;1442;47.448;8.582;2022-12-18T00:11:37;65.13;;;28.42;;
2868;SDS011;1442;47.448;8.582;2022-12-18T00:14:05;57.22;;;28.25;;
2868;SDS011;1442;47.448;8.582;2022-12-18T00:16:32;60.03;;;28.70;;
2868;SDS011;1442;47.448;8.582;2022-12-18T00:19:03;63.00;;;29.75;;
2868;SDS011;1442;47.448;8.582;2022-12-18T00:21:31;64.85;;;29.70;;
2868;SDS011;1442;47.448;8.582;2022-12-18T00:23:58;58.67;;;28.85;;
2868;SDS011;1442;47.448;8.582;2022-12-18T00:26:26;58.13;;;28.75;;
2868;SDS011;1442;47.448;8.582;2022-12-18T00:28:54;63.13;;;30.67;;
2868;SDS011;1442;47.448;8.582;2022-12-18T00:31:23;59.13;;;29.42;;
2868;SDS011;1442;47.448;8.582;2022-12-18T00:33:51;61.67;;;31.13;;
2868;SDS011;1442;47.448;8.582;2022-12-18T00:36:20;60.20;;;30.20;;
2868;SDS011;1442;47.448;8.582;2022-12-18T00:38:47;60.38;;;30.05;;
2868;SDS011;1442;47.448;8.582;2022-12-18T00:41:15;64.88;;;30.90;;
2868;SDS011;1442;47.448;8.582;2022-12-18T00:44:03;56.92;;;28.60;;
2868;SDS011;1442;47.448;8.582;2022-12-18T00:46:30;55.72;;;29.42;;
2868;SDS011;1442;47.448;8.582;2022-12-18T00:48:57;51.97;;;28.05;;
2868;SDS011;1442;47.448;8.582;2022-12-18T00:51:25;56.88;;;27.58;;
2868;SDS011;1442;47.448;8.582;2022-12-18T00:53:53;53.75;;;27.42;;
2868;SDS011;1442;47.448;8.582;2022-12-18T00:56:20;63.95;;;29.48;;
2868;SDS011;1442;47.448;8.582;2022-12-18T00:58:47;61.63;;;28.92;;
2868;SDS011;1442;47.448;8.582;2022-12-18T01:01:14;62.22;;;30.35;;
2868;SDS011;1442;47.448;8.582;2022-12-18T01:03:41;55.22;;;28.55;;
2868;SDS011;1442;47.448;8.582;2022-12-18T01:06:10;58.97;;;28.80;;
2868;SDS011;1442;47.448;8.582;2022-12-18T01:08:39;58.53;;;29.75;;
2868;SDS011;1442;47.448;8.582;2022-12-18T01:11:06;60.00;;;28.42;;
2868;SDS011;1442;47.448;8.582;2022-12-18T01:13:34;55.65;;;26.63;;
2868;SDS011;1442;47.448;8.582;2022-12-18T01:16:01;54.30;;;27.63;;
2868;SDS011;1442;47.448;8.582;2022-12-18T01:18:28;54.53;;;28.48;;
2868;SDS011;1442;47.448;8.582;2022-12-18T01:20:55;59.30;;;28.48;;
2868;SDS011;1442;47.448;8.582;2022-12-18T01:23:22;59.58;;;28.02;;
2868;SDS011;1442;47.448;8.582;2022-12-18T01:25:51;59.38;;;27.73;;
2868;SDS011;1442;47.448;8.582;2022-12-18T01:28:18;55.03;;;28.35;;
2868;SDS011;1442;47.448;8.582;2022-12-18T01:30:45;62.53;;;29.95;;
2868;SDS011;1442;47.448;8.582;2022-12-18T01:33:12;64.05;;;31.27;;
2868;SDS011;1442;47.448;8.582;2022-12-18T01:35:40;67.55;;;30.80;;
2868;SDS011;1442;47.448;8.582;2022-12-18T01:38:07;72.80;;;31.60;;
2868;SDS011;1442;47.448;8.582;2022-12-18T01:40:34;60.78;;;31.15;;
2868;SDS011;1442;47.448;8.582;2022-12-18T01:43:03;66.70;;;31.05;;
2868;SDS011;1442;47.448;8.582;2022-12-18T01:45:30;58.00;;;28.13;;
2868;SDS011;1442;47.448;8.582;2022-12-18T01:47:59;60.05;;;29.60;;
2868;SDS011;1442;47.448;8.582;2022-12-18T01:50:28;61.55;;;30.73;;
2868;SDS011;1442;47.448;8.582;2022-12-18T01:52:56;63.80;;;29.85;;
2868;SDS011;1442;47.448;8.582;2022-12-18T01:55:25;62.30;;;30.40;;
2868;SDS011;1442;47.448;8.582;2022-12-18T01:57:53;61.92;;;29.25;;
2868;SDS011;1442;47.448;8.582;2022-12-18T02:00:22;61.88;;;30.38;;
2868;SDS011;1442;47.448;8.582;2022-12-18T02:02:50;59.83;;;30.02;;
2868;SDS011;1442;47.448;8.582;2022-12-18T02:05:19;77.00;;;31.58;;
2868;SDS011;1442;47.448;8.582;2022-12-18T02:07:53;64.15;;;31.23;;
2868;SDS011;1442;47.448;8.582;2022-12-18T02:10:24;68.45;;;30.15;;
2868;SDS011;1442;47.448;8.582;2022-12-18T02:12:53;62.38;;;30.85;;
2868;SDS011;1442;47.448;8.582;2022-12-18T02:15:24;67.25;;;30.33;;
2868;SDS011;1442;47.448;8.582;2022-12-18T02:17:54;67.75;;;31.15;;
2868;SDS011;1442;47.448;8.582;2022-12-18T02:20:23;64.90;;;30.10;;
2868;SDS011;1442;47.448;8.582;2022-12-18T02:22:56;64.28;;;29.95;;
2868;SDS011;1442;47.448;8.582;2022-12-18T02:25:29;66.43;;;28.77;;
2868;SDS011;1442;47.448;8.582;2022-12-18T02:28:02;68.53;;;29.58;;
2868;SDS011;1442;47.448;8.582;2022-12-18T02:30:31;58.35;;;28.77;;
2868;SDS011;1442;47.448;8.582;2022-12-18T02:33:00;59.30;;;29.00;;
2868;SDS011;1442;47.448;8.582;2022-12-18T02:35:28;69.80;;;29.58;;
2868;SDS011;1442;47.448;8.582;2022-12-18T02:37:56;63.08;;;29.52;;
2868;SDS011;1442;47.448;8.582;2022-12-18T02:40:25;62.45;;;29.65;;
2868;SDS011;1442;47.448;8.582;2022-12-18T02:42:53;62.83;;;28.25;;
2868;SDS011;1442;47.448;8.582;2022-12-18T02:45:21;60.80;;;28.60;;
2868;SDS011;1442;47.448;8.582;2022-12-18T02:47:49;66.75;;;29.83;;
2868;SDS011;1442;47.448;8.582;2022-12-18T02:50:19;65.68;;;30.38;;
2868;SDS011;1442;47.448;8.582;2022-12-18T02:52:49;57.05;;;28.30;;
2868;SDS011;1442;47.448;8.582;2022-12-18T02:57:48;62.92;;;29.38;;
2868;SDS011;1442;47.448;8.582;2022-12-18T03:00:17;59.25;;;28.60;;
2868;SDS011;1442;47.448;8.582;2022-12-18T03:02:47;65.45;;;29.42;;
2868;SDS011;1442;47.448;8.582;2022-12-18T03:05:16;65.38;;;30.80;;
2868;SDS011;1442;47.448;8.582;2022-12-18T03:07:46;67.85;;;29.50;;
2868;SDS011;1442;47.448;8.582;2022-12-18T03:10:16;70.63;;;31.45;;
2868;SDS011;1442;47.448;8.582;2022-12-18T03:12:46;65.60;;;30.27;;
2868;SDS011;1442;47.448;8.582;2022-12-18T03:15:15;67.88;;;29.27;;
2868;SDS011;1442;47.448;8.582;2022-12-18T03:17:45;74.55;;;30.30;;
2868;SDS011;1442;47.448;8.582;2022-12-18T03:20:15;69.70;;;30.73;;
2868;SDS011;1442;47.448;8.582;2022-12-18T03:22:45;73.78;;;31.33;;
2868;SDS011;1442;47.448;8.582;2022-12-18T03:25:13;69.55;;;31.65;;
2868;SDS011;1442;47.448;8.582;2022-12-18T03:27:42;65.75;;;31.17;;
2868;SDS011;1442;47.448;8.582;2022-12-18T03:30:12;83.00;;;31.52;;
2868;SDS011;1442;47.448;8.582;2022-12-18T03:32:41;71.75;;;31.60;;
2868;SDS011;1442;47.448;8.582;2022-12-18T03:35:10;72.05;;;33.25;;
2868;SDS011;1442;47.448;8.582;2022-12-18T03:37:39;78.32;;;33.03;;
2868;SDS011;1442;47.448;8.582;2022-12-18T03:40:07;67.53;;;31.20;;
2868;SDS011;1442;47.448;8.582;2022-12-18T03:42:36;71.30;;;31.73;;
2868;SDS011;1442;47.448;8.582;2022-12-18T03:45:06;78.87;;;35.43;;
2868;SDS011;1442;47.448;8.582;2022-12-18T03:47:37;69.35;;;30.25;;
2868;SDS011;1442;47.448;8.582;2022-12-18T03:50:09;73.55;;;31.23;;
2868;SDS011;1442;47.448;8.582;2022-12-18T03:52:41;74.38;;;32.13;;
2868;SDS011;1442;47.448;8.582;2022-12-18T03:55:09;68.93;;;32.60;;
2868;SDS011;1442;47.448;8.582;2022-12-18T03:57:36;74.82;;;31.50;;
2868;SDS011;1442;47.448;8.582;2022-12-18T04:00:05;72.55;;;32.67;;
2868;SDS011;1442;47.448;8.582;2022-12-18T04:02:33;76.47;;;33.97;;
2868;SDS011;1442;47.448;8.582;2022-12-18T04:05:02;75.85;;;33.33;;
2868;SDS011;1442;47.448;8.582;2022-12-18T04:07:30;80.55;;;33.67;;
2868;SDS011;1442;47.448;8.582;2022-12-18T04:09:59;75.15;;;33.53;;
2868;SDS011;1442;47.448;8.582;2022-12-18T04:12:28;80.68;;;34.47;;
2868;SDS011;1442;47.448;8.582;2022-12-18T04:14:56;76.28;;;33.17;;
2868;SDS011;1442;47.448;8.582;2022-12-18T04:17:23;78.97;;;34.13;;
2868;SDS011;1442;47.448;8.582;2022-12-18T04:19:50;69.93;;;31.73;;
2868;SDS011;1442;47.448;8.582;2022-12-18T04:22:17;76.32;;;33.70;;
2868;SDS011;1442;47.448;8.582;2022-12-18T04:24:44;77.43;;;33.35;;
2868;SDS011;1442;47.448;8.582;2022-12-18T04:27:13;86.68;;;34.30;;
2868;SDS011;1442;47.448;8.582;2022-12-18T04:29:40;83.30;;;34.05;;
2868;SDS011;1442;47.448;8.582;2022-12-18T04:32:07;80.32;;;34.92;;
2868;SDS011;1442;47.448;8.582;2022-12-18T04:34:34;76.28;;;32.50;;
2868;SDS011;1442;47.448;8.582;2022-12-18T04:37:01;73.25;;;34.15;;
2868;SDS011;1442;47.448;8.582;2022-12-18T04:39:29;80.45;;;32.83;;
2868;SDS011;1442;47.448;8.582;2022-12-18T04:41:56;86.50;;;33.00;;
2868;SDS011;1442;47.448;8.582;2022-12-18T04:44:28;90.75;;;35.97;;
2868;SDS011;1442;47.448;8.582;2022-12-18T04:46:55;74.70;;;32.08;;
2868;SDS011;1442;47.448;8.582;2022-12-18T04:49:22;78.68;;;33.42;;
2868;SDS011;1442;47.448;8.582;2022-12-18T04:51:49;77.28;;;34.00;;
2868;SDS011;1442;47.448;8.582;2022-12-18T04:54:16;76.03;;;32.70;;
2868;SDS011;1442;47.448;8.582;2022-12-18T04:56:43;85.30;;;34.00;;
2868;SDS011;1442;47.448;8.582;2022-12-18T04:59:10;90.10;;;33.20;;
2868;SDS011;1442;47.448;8.582;2022-12-18T05:01:39;76.03;;;32.50;;
2868;SDS011;1442;47.448;8.582;2022-12-18T05:04:06;72.88;;;30.83;;
2868;SDS011;1442;47.448;8.582;2022-12-18T05:06:33;68.75;;;30.08;;
2868;SDS011;1442;47.448;8.582;2022-12-18T05:09:00;62.40;;;28.58;;
2868;SDS011;1442;47.448;8.582;2022-12-18T05:11:28;63.80;;;28.83;;
2868;SDS011;1442;47.448;8.582;2022-12-18T05:13:55;59.85;;;28.65;;
2868;SDS011;1442;47.448;8.582;2022-12-18T05:16:22;61.55;;;27.00;;
2868;SDS011;1442;47.448;8.582;2022-12-18T05:18:50;60.03;;;27.85;;
2868;SDS011;1442;47.448;8.582;2022-12-18T05:21:17;60.85;;;27.17;;
2868;SDS011;1442;47.448;8.582;2022-12-18T05:23:44;64.88;;;28.27;;
2868;SDS011;1442;47.448;8.582;2022-12-18T05:26:14;54.03;;;26.75;;
2868;SDS011;1442;47.448;8.582;2022-12-18T05:28:41;62.92;;;27.17;;
2868;SDS011;1442;47.448;8.582;2022-12-18T05:31:08;57.13;;;27.27;;
2868;SDS011;1442;47.448;8.582;2022-12-18T05:33:36;57.83;;;27.08;;
2868;SDS011;1442;47.448;8.582;2022-12-18T05:36:05;56.10;;;26.88;;
2868;SDS011;1442;47.448;8.582;2022-12-18T05:38:33;63.83;;;28.55;;
2868;SDS011;1442;47.448;8.582;2022-12-18T05:41:01;58.55;;;27.92;;
2868;SDS011;1442;47.448;8.582;2022-12-18T05:43:28;59.83;;;28.98;;
2868;SDS011;1442;47.448;8.582;2022-12-18T05:45:55;60.90;;;29.27;;
2868;SDS011;1442;47.448;8.582;2022-12-18T05:48:22;60.72;;;28.48;;
2868;SDS011;1442;47.448;8.582;2022-12-18T05:50:50;63.58;;;29.73;;
2868;SDS011;1442;47.448;8.582;2022-12-18T05:53:18;62.75;;;29.63;;
2868;SDS011;1442;47.448;8.582;2022-12-18T05:55:46;73.50;;;33.15;;
2868;SDS011;1442;47.448;8.582;2022-12-18T05:58:13;72.07;;;29.77;;
2868;SDS011;1442;47.448;8.582;2022-12-18T06:00:42;59.92;;;28.33;;
2868;SDS011;1442;47.448;8.582;2022-12-18T06:03:10;64.35;;;29.58;;
2868;SDS011;1442;47.448;8.582;2022-12-18T06:05:39;65.78;;;30.65;;
2868;SDS011;1442;47.448;8.582;2022-12-18T06:08:06;62.70;;;29.73;;
2868;SDS011;1442;47.448;8.582;2022-12-18T06:10:35;65.93;;;29.42;;
2868;SDS011;1442;47.448;8.582;2022-12-18T06:13:02;61.10;;;28.75;;
2868;SDS011;1442;47.448;8.582;2022-12-18T06:15:29;64.15;;;27.98;;
2868;SDS011;1442;47.448;8.582;2022-12-18T06:17:56;66.07;;;29.95;;
2868;SDS011;1442;47.448;8.582;2022-12-18T06:20:24;65.68;;;30.88;;
2868;SDS011;1442;47.448;8.582;2022-12-18T06:22:51;69.38;;;29.35;;
2868;SDS011;1442;47.448;8.582;2022-12-18T06:25:18;65.60;;;29.67;;
2868;SDS011;1442;47.448;8.582;2022-12-18T06:27:47;66.13;;;30.42;;
2868;SDS011;1442;47.448;8.582;2022-12-18T06:30:15;65.93;;;30.42;;
2868;SDS011;1442;47.448;8.582;2022-12-18T06:32:42;71.93;;;31.55;;
2868;SDS011;1442;47.448;8.582;2022-12-18T06:35:09;75.75;;;31.52;;
2868;SDS011;1442;47.448;8.582;2022-12-18T06:37:36;67.15;;;30.45;;
2868;SDS011;1442;47.448;8.582;2022-12-18T06:40:04;66.72;;;29.88;;
2868;SDS011;1442;47.448;8.582;2022-12-18T06:42:31;69.28;;;31.38;;
2868;SDS011;1442;47.448;8.582;2022-12-18T06:45:00;67.60;;;30.85;;
2868;SDS011;1442;47.448;8.582;2022-12-18T06:47:27;72.38;;;30.77;;
2868;SDS011;1442;47.448;8.582;2022-12-18T06:49:54;66.13;;;30.08;;
2868;SDS011;1442;47.448;8.582;2022-12-18T06:52:22;67.28;;;30.48;;
2868;SDS011;1442;47.448;8.582;2022-12-18T06:54:49;71.05;;;32.78;;
2868;SDS011;1442;47.448;8.582;2022-12-18T06:57:16;66.93;;;31.08;;
2868;SDS011;1442;47.448;8.582;2022-12-18T06:59:43;67.40;;;30.17;;
2868;SDS011;1442;47.448;8.582;2022-12-18T07:02:12;65.38;;;29.42;;
2868;SDS011;1442;47.448;8.582;2022-12-18T07:04:39;62.85;;;27.60;;
2868;SDS011;1442;47.448;8.582;2022-12-18T07:07:06;58.13;;;28.67;;
2868;SDS011;1442;47.448;8.582;2022-12-18T07:09:33;60.35;;;27.63;;
2868;SDS011;1442;47.448;8.582;2022-12-18T07:12:00;68.03;;;29.75;;
2868;SDS011;1442;47.448;8.582;2022-12-18T07:14:29;60.58;;;28.92;;
2868;SDS011;1442;47.448;8.582;2022-12-18T07:16:57;60.22;;;28.23;;
2868;SDS011;1442;47.448;8.582;2022-12-18T07:19:25;57.15;;;26.02;;
2868;SDS011;1442;47.448;8.582;2022-12-18T07:21:52;52.17;;;26.55;;
2868;SDS011;1442;47.448;8.582;2022-12-18T07:24:19;52.75;;;26.48;;
2868;SDS011;1442;47.448;8.582;2022-12-18T07:26:46;57.58;;;26.98;;
2868;SDS011;1442;47.448;8.582;2022-12-18T07:29:13;57.33;;;27.27;;
2868;SDS011;1442;47.448;8.582;2022-12-18T07:31:41;57.10;;;26.80;;
2868;SDS011;1442;47.448;8.582;2022-12-18T07:34:09;54.60;;;26.63;;
2868;SDS011;1442;47.448;8.582;2022-12-18T07:36:38;51.38;;;25.80;;
2868;SDS011;1442;47.448;8.582;2022-12-18T07:39:05;57.88;;;28.30;;
2868;SDS011;1442;47.448;8.582;2022-12-18T07:41:32;60.67;;;26.42;;
2868;SDS011;1442;47.448;8.582;2022-12-18T07:43:59;62.92;;;26.90;;
2868;SDS011;1442;47.448;8.582;2022-12-18T07:46:26;59.03;;;26.52;;
2868;SDS011;1442;47.448;8.582;2022-12-18T07:48:53;57.20;;;27.83;;
2868;SDS011;1442;47.448;8.582;2022-12-18T07:51:20;56.97;;;26.63;;
2868;SDS011;1442;47.448;8.582;2022-12-18T07:53:49;63.05;;;26.02;;
2868;SDS011;1442;47.448;8.582;2022-12-18T07:56:16;56.58;;;27.27;;
2868;SDS011;1442;47.448;8.582;2022-12-18T07:58:43;58.30;;;27.13;;
2868;SDS011;1442;47.448;8.582;2022-12-18T08:01:13;53.42;;;26.60;;
2868;SDS011;1442;47.448;8.582;2022-12-18T08:03:40;56.88;;;28.00;;
2868;SDS011;1442;47.448;8.582;2022-12-18T08:06:08;53.85;;;27.20;;
2868;SDS011;1442;47.448;8.582;2022-12-18T08:08:35;56.33;;;27.65;;
2868;SDS011;1442;47.448;8.582;2022-12-18T08:11:04;55.03;;;26.13;;
2868;SDS011;1442;47.448;8.582;2022-12-18T08:13:31;55.15;;;23.40;;
2868;SDS011;1442;47.448;8.582;2022-12-18T08:15:59;54.70;;;26.45;;
2868;SDS011;1442;47.448;8.582;2022-12-18T08:18:26;54.15;;;25.67;;
2868;SDS011;1442;47.448;8.582;2022-12-18T08:20:53;54.25;;;26.60;;
2868;SDS011;1442;47.448;8.582;2022-12-18T08:23:20;52.42;;;24.38;;
2868;SDS011;1442;47.448;8.582;2022-12-18T08:25:48;50.42;;;26.05;;
2868;SDS011;1442;47.448;8.582;2022-12-18T08:28:17;50.97;;;24.63;;
2868;SDS011;1442;47.448;8.582;2022-12-18T08:30:44;52.13;;;25.75;;
2868;SDS011;1442;47.448;8.582;2022-12-18T08:33:11;50.60;;;24.30;;
2868;SDS011;1442;47.448;8.582;2022-12-18T08:35:39;54.97;;;26.85;;
2868;SDS011;1442;47.448;8.582;2022-12-18T08:38:06;50.97;;;25.67;;
2868;SDS011;1442;47.448;8.582;2022-12-18T08:40:33;51.90;;;25.55;;
2868;SDS011;1442;47.448;8.582;2022-12-18T08:43:00;49.83;;;23.52;;
2868;SDS011;1442;47.448;8.582;2022-12-18T08:45:51;48.75;;;24.38;;
2868;SDS011;1442;47.448;8.582;2022-12-18T08:48:18;54.88;;;26.02;;
2868;SDS011;1442;47.448;8.582;2022-12-18T08:50:53;51.40;;;24.27;;
2868;SDS011;1442;47.448;8.582;2022-12-18T08:53:20;54.75;;;26.52;;
2868;SDS011;1442;47.448;8.582;2022-12-18T08:55:47;45.80;;;23.13;;
2868;SDS011;1442;47.448;8.582;2022-12-18T08:58:14;55.45;;;24.58;;
2868;SDS011;1442;47.448;8.582;2022-12-18T09:00:41;54.83;;;25.17;;
2868;SDS011;1442;47.448;8.582;2022-12-18T09:03:11;48.90;;;24.80;;
2868;SDS011;1442;47.448;8.582;2022-12-18T09:05:39;53.53;;;25.15;;
2868;SDS011;1442;47.448;8.582;2022-12-18T09:08:06;51.95;;;25.25;;
2868;SDS011;1442;47.448;8.582;2022-12-18T09:10:33;50.08;;;24.58;;
2868;SDS011;1442;47.448;8.582;2022-12-18T09:13:00;51.30;;;25.63;;
2868;SDS011;1442;47.448;8.582;2022-12-18T09:15:27;50.92;;;25.42;;
2868;SDS011;1442;47.448;8.582;2022-12-18T09:17:54;49.55;;;24.50;;
2868;SDS011;1442;47.448;8.582;2022-12-18T09:20:23;49.78;;;24.63;;
2868;SDS011;1442;47.448;8.582;2022-12-18T09:22:50;50.85;;;25.08;;
2868;SDS011;1442;47.448;8.582;2022-12-18T09:25:17;48.30;;;23.83;;
2868;SDS011;1442;47.448;8.582;2022-12-18T09:27:46;52.75;;;27.10;;
2868;SDS011;1442;47.448;8.582;2022-12-18T09:30:13;49.45;;;25.65;;
2868;SDS011;1442;47.448;8.582;2022-12-18T09:32:40;54.10;;;25.55;;
2868;SDS011;1442;47.448;8.582;2022-12-18T09:35:07;52.72;;;24.83;;
2868;SDS011;1442;47.448;8.582;2022-12-18T09:37:36;49.55;;;24.70;;
2868;SDS011;1442;47.448;8.582;2022-12-18T09:40:04;49.05;;;24.77;;
2868;SDS011;1442;47.448;8.582;2022-12-18T09:42:31;51.83;;;25.75;;
2868;SDS011;1442;47.448;8.582;2022-12-18T09:44:58;50.78;;;24.45;;
2868;SDS011;1442;47.448;8.582;2022-12-18T09:47:27;51.30;;;26.63;;
2868;SDS011;1442;47.448;8.582;2022-12-18T09:49:56;51.28;;;25.70;;
2868;SDS011;1442;47.448;8.582;2022-12-18T09:52:25;50.10;;;25.20;;
2868;SDS011;1442;47.448;8.582;2022-12-18T09:54:56;53.45;;;25.77;;
2868;SDS011;1442;47.448;8.582;2022-12-18T09:57:25;42.00;;;19.97;;
2868;SDS011;1442;47.448;8.582;2022-12-18T09:59:54;52.78;;;25.45;;
2868;SDS011;1442;47.448;8.582;2022-12-18T10:02:22;51.50;;;26.48;;
2868;SDS011;1442;47.448;8.582;2022-12-18T10:04:53;53.83;;;25.58;;
2868;SDS011;1442;47.448;8.582;2022-12-18T10:07:23;49.05;;;24.75;;
2868;SDS011;1442;47.448;8.582;2022-12-18T10:09:53;53.85;;;26.27;;
2868;SDS011;1442;47.448;8.582;2022-12-18T10:12:28;49.40;;;24.17;;
2868;SDS011;1442;47.448;8.582;2022-12-18T10:14:59;54.28;;;25.45;;
2868;SDS011;1442;47.448;8.582;2022-12-18T10:17:30;52.47;;;25.88;;
2868;SDS011;1442;47.448;8.582;2022-12-18T10:20:04;46.90;;;24.33;;
2868;SDS011;1442;47.448;8.582;2022-12-18T10:22:38;52.45;;;24.88;;
2868;SDS011;1442;47.448;8.582;2022-12-18T10:25:10;54.08;;;26.55;;
2868;SDS011;1442;47.448;8.582;2022-12-18T10:27:41;50.15;;;25.45;;
2868;SDS011;1442;47.448;8.582;2022-12-18T10:30:12;52.38;;;26.45;;
2868;SDS011;1442;47.448;8.582;2022-12-18T10:32:39;51.67;;;25.30;;
2868;SDS011;1442;47.448;8.582;2022-12-18T10:35:08;52.25;;;25.30;;
2868;SDS011;1442;47.448;8.582;2022-12-18T10:37:38;54.50;;;25.98;;
2868;SDS011;1442;47.448;8.582;2022-12-18T10:40:25;54.80;;;26.35;;
2868;SDS011;1442;47.448;8.582;2022-12-18T10:43:04;61.05;;;28.50;;
2868;SDS011;1442;47.448;8.582;2022-12-18T10:45:31;52.92;;;25.83;;
2868;SDS011;1442;47.448;8.582;2022-12-18T10:47:58;57.42;;;29.52;;
2868;SDS011;1442;47.448;8.582;2022-12-18T10:50:26;61.08;;;28.40;;
2868;SDS011;1442;47.448;8.582;2022-12-18T10:52:55;59.30;;;29.13;;
2868;SDS011;1442;47.448;8.582;2022-12-18T10:55:24;57.80;;;27.80;;
2868;SDS011;1442;47.448;8.582;2022-12-18T10:57:54;56.22;;;27.23;;
2868;SDS011;1442;47.448;8.582;2022-12-18T11:00:24;55.15;;;26.70;;
2868;SDS011;1442;47.448;8.582;2022-12-18T11:02:52;58.95;;;28.25;;
2868;SDS011;1442;47.448;8.582;2022-12-18T11:05:27;53.20;;;27.63;;
2868;SDS011;1442;47.448;8.582;2022-12-18T11:07:55;60.35;;;29.30;;
2868;SDS011;1442;47.448;8.582;2022-12-18T11:10:23;54.70;;;27.40;;
2868;SDS011;1442;47.448;8.582;2022-12-18T11:12:52;59.10;;;28.10;;
2868;SDS011;1442;47.448;8.582;2022-12-18T11:15:20;52.40;;;25.63;;
2868;SDS011;1442;47.448;8.582;2022-12-18T11:17:49;54.95;;;26.60;;
2868;SDS011;1442;47.448;8.582;2022-12-18T11:20:21;62.67;;;27.08;;
2868;SDS011;1442;47.448;8.582;2022-12-18T11:22:54;55.67;;;28.13;;
2868;SDS011;1442;47.448;8.582;2022-12-18T11:25:22;52.15;;;25.90;;
2868;SDS011;1442;47.448;8.582;2022-12-18T11:27:50;53.33;;;26.75;;
2868;SDS011;1442;47.448;8.582;2022-12-18T11:30:22;57.63;;;27.92;;
2868;SDS011;1442;47.448;8.582;2022-12-18T11:32:51;52.13;;;26.40;;
2868;SDS011;1442;47.448;8.582;2022-12-18T11:35:19;57.10;;;27.33;;
2868;SDS011;1442;47.448;8.582;2022-12-18T11:37:49;54.85;;;26.58;;
2868;SDS011;1442;47.448;8.582;2022-12-18T11:40:17;59.63;;;28.92;;
2868;SDS011;1442;47.448;8.582;2022-12-18T11:42:46;56.30;;;26.13;;
2868;SDS011;1442;47.448;8.582;2022-12-18T11:45:28;51.70;;;28.13;;
2868;SDS011;1442;47.448;8.582;2022-12-18T11:48:02;55.17;;;26.38;;
2868;SDS011;1442;47.448;8.582;2022-12-18T11:50:32;54.95;;;27.17;;
2868;SDS011;1442;47.448;8.582;2022-12-18T11:53:00;54.50;;;27.10;;
2868;SDS011;1442;47.448;8.582;2022-12-18T11:55:31;54.25;;;26.98;;
2868;SDS011;1442;47.448;8.582;2022-12-18T11:58:01;52.30;;;25.10;;
2868;SDS011;1442;47.448;8.582;2022-12-18T12:00:30;52.55;;;26.70;;
2868;SDS011;1442;47.448;8.582;2022-12-18T12:03:10;52.40;;;26.33;;
2868;SDS011;1442;47.448;8.582;2022-12-18T12:05:44;49.30;;;24.77;;
2868;SDS011;1442;47.448;8.582;2022-12-18T12:08:15;52.72;;;25.50;;
2868;SDS011;1442;47.448;8.582;2022-12-18T12:10:48;66.75;;;27.50;;
2868;SDS011;1442;47.448;8.582;2022-12-18T12:13:22;55.45;;;26.15;;
2868;SDS011;1442;47.448;8.582;2022-12-18T12:15:53;56.50;;;27.08;;
2868;SDS011;1442;47.448;8.582;2022-12-18T12:18:28;51.70;;;25.38;;
2868;SDS011;1442;47.448;8.582;2022-12-18T12:20:59;59.35;;;26.13;;
2868;SDS011;1442;47.448;8.582;2022-12-18T12:23:30;52.42;;;25.92;;
2868;SDS011;1442;47.448;8.582;2022-12-18T12:26:02;53.88;;;26.08;;
2868;SDS011;1442;47.448;8.582;2022-12-18T12:28:47;54.22;;;26.63;;
2868;SDS011;1442;47.448;8.582;2022-12-18T12:31:18;46.95;;;21.95;;
2868;SDS011;1442;47.448;8.582;2022-12-18T12:33:52;51.58;;;25.35;;
2868;SDS011;1442;47.448;8.582;2022-12-18T12:36:22;54.67;;;24.92;;
2868;SDS011;1442;47.448;8.582;2022-12-18T12:38:54;56.03;;;24.90;;
2868;SDS011;1442;47.448;8.582;2022-12-18T12:41:23;55.05;;;26.40;;
2868;SDS011;1442;47.448;8.582;2022-12-18T12:44:08;55.30;;;26.00;;
2868;SDS011;1442;47.448;8.582;2022-12-18T12:46:40;52.03;;;26.02;;
2868;SDS011;1442;47.448;8.582;2022-12-18T12:49:11;57.33;;;26.08;;
2868;SDS011;1442;47.448;8.582;2022-12-18T12:51:40;55.83;;;25.52;;
2868;SDS011;1442;47.448;8.582;2022-12-18T12:54:11;61.63;;;26.85;;
2868;SDS011;1442;47.448;8.582;2022-12-18T12:56:42;50.95;;;25.17;;
2868;SDS011;1442;47.448;8.582;2022-12-18T12:59:13;57.20;;;27.85;;
2868;SDS011;1442;47.448;8.582;2022-12-18T13:01:41;54.65;;;27.02;;
2868;SDS011;1442;47.448;8.582;2022-12-18T13:04:15;55.08;;;26.25;;
2868;SDS011;1442;47.448;8.582;2022-12-18T13:06:46;55.03;;;27.30;;
2868;SDS011;1442;47.448;8.582;2022-12-18T13:09:14;53.17;;;25.33;;
2868;SDS011;1442;47.448;8.582;2022-12-18T13:11:42;53.53;;;26.95;;
2868;SDS011;1442;47.448;8.582;2022-12-18T13:14:28;53.83;;;25.83;;
2868;SDS011;1442;47.448;8.582;2022-12-18T13:17:15;58.40;;;26.77;;
2868;SDS011;1442;47.448;8.582;2022-12-18T13:19:44;55.72;;;25.38;;
2868;SDS011;1442;47.448;8.582;2022-12-18T13:22:21;59.28;;;27.42;;
2868;SDS011;1442;47.448;8.582;2022-12-18T13:24:48;62.63;;;27.55;;
2868;SDS011;1442;47.448;8.582;2022-12-18T13:30:11;60.20;;;26.58;;
2868;SDS011;1442;47.448;8.582;2022-12-18T13:33:11;54.63;;;26.45;;
2868;SDS011;1442;47.448;8.582;2022-12-18T13:36:02;61.55;;;26.27;;
2868;SDS011;1442;47.448;8.582;2022-12-18T13:38:36;55.85;;;26.15;;
2868;SDS011;1442;47.448;8.582;2022-12-18T13:41:04;56.33;;;25.48;;
2868;SDS011;1442;47.448;8.582;2022-12-18T13:43:48;55.35;;;26.42;;
2868;SDS011;1442;47.448;8.582;2022-12-18T13:46:20;56.47;;;26.77;;
2868;SDS011;1442;47.448;8.582;2022-12-18T13:48:51;60.20;;;27.83;;
2868;SDS011;1442;47.448;8.582;2022-12-18T13:51:20;53.90;;;26.50;;
2868;SDS011;1442;47.448;8.582;2022-12-18T13:53:49;56.67;;;25.48;;
2868;SDS011;1442;47.448;8.582;2022-12-18T13:56:17;61.00;;;27.00;;
2868;SDS011;1442;47.448;8.582;2022-12-18T13:59:02;56.67;;;27.98;;
2868;SDS011;1442;47.448;8.582;2022-12-18T14:01:30;58.03;;;25.25;;
2868;SDS011;1442;47.448;8.582;2022-12-18T14:04:08;54.22;;;26.30;;
2868;SDS011;1442;47.448;8.582;2022-12-18T14:06:37;54.78;;;26.85;;
2868;SDS011;1442;47.448;8.582;2022-12-18T14:09:04;57.80;;;26.25;;
2868;SDS011;1442;47.448;8.582;2022-12-18T14:11:31;54.97;;;25.30;;
2868;SDS011;1442;47.448;8.582;2022-12-18T14:13:59;54.05;;;26.02;;
2868;SDS011;1442;47.448;8.582;2022-12-18T14:16:26;55.88;;;27.00;;
2868;SDS011;1442;47.448;8.582;2022-12-18T14:18:54;56.38;;;26.92;;
2868;SDS011;1442;47.448;8.582;2022-12-18T14:21:23;55.30;;;25.90;;
2868;SDS011;1442;47.448;8.582;2022-12-18T14:24:04;54.22;;;25.27;;
2868;SDS011;1442;47.448;8.582;2022-12-18T14:26:31;55.88;;;25.65;;
2868;SDS011;1442;47.448;8.582;2022-12-18T14:28:59;62.85;;;29.13;;
2868;SDS011;1442;47.448;8.582;2022-12-18T14:31:28;52.35;;;25.67;;
2868;SDS011;1442;47.448;8.582;2022-12-18T14:33:55;51.50;;;24.55;;
2868;SDS011;1442;47.448;8.582;2022-12-18T14:36:23;50.42;;;25.20;;
2868;SDS011;1442;47.448;8.582;2022-12-18T14:38:50;52.45;;;24.67;;
2868;SDS011;1442;47.448;8.582;2022-12-18T14:41:20;52.35;;;24.98;;
2868;SDS011;1442;47.448;8.582;2022-12-18T14:43:48;49.50;;;24.50;;
2868;SDS011;1442;47.448;8.582;2022-12-18T14:46:29;55.72;;;25.80;;
2868;SDS011;1442;47.448;8.582;2022-12-18T14:48:57;50.60;;;25.30;;
2868;SDS011;1442;47.448;8.582;2022-12-18T14:51:25;48.90;;;23.25;;
2868;SDS011;1442;47.448;8.582;2022-12-18T14:53:53;48.95;;;24.17;;
2868;SDS011;1442;47.448;8.582;2022-12-18T14:56:23;50.33;;;24.17;;
2868;SDS011;1442;47.448;8.582;2022-12-18T14:58:52;51.65;;;23.88;;
2868;SDS011;1442;47.448;8.582;2022-12-18T15:01:20;54.30;;;23.75;;
2868;SDS011;1442;47.448;8.582;2022-12-18T15:03:49;44.70;;;22.13;;
2868;SDS011;1442;47.448;8.582;2022-12-18T15:06:17;47.15;;;22.40;;